Time;durP1;ratioP1;P1;durP2;ratioP2;P2;SDS_P1;SDS_P2;PMS_P1;PMS_P2;Temp;Humidity;BMP_temperature;BMP_pressure;BME280_temperature;BME280_humidity;BME280_pressure;Samples;Min_cycle;Max_cycle;Signal;HPM_P1;HPM_P2
2022/09/15 00:01:37;;;;;;;7.17;6.67;;;;;;;;;;4930724;29;20247;-80
2022/09/15 00:04:06;;;;;;;7.60;7.10;;;;;;;;;;4930650;29;20692;-78
2022/09/15 00:06:33;;;;;;;7.50;7.00;;;;;;;;;;4913098;29;20282;-79
2022/09/15 00:09:00;;;;;;;7.47;6.90;;;;;;;;;;4913712;29;20578;-80
2022/09/15 00:11:28;;;;;;;7.03;6.53;;;;;;;;;;4913217;29;20224;-78
2022/09/15 00:13:56;;;;;;;6.83;6.40;;;;;;;;;;4913399;29;20244;-79
2022/09/15 00:16:25;;;;;;;6.73;6.27;;;;;;;;;;4913021;29;20600;-80
2022/09/15 00:18:52;;;;;;;6.70;6.20;;;;;;;;;;4930536;29;20193;-79
2022/09/15 00:21:21;;;;;;;7.00;6.40;;;;;;;;;;4930090;29;20666;-79
2022/09/15 00:23:49;;;;;;;6.83;6.33;;;;;;;;;;4912568;29;20215;-79
2022/09/15 00:26:17;;;;;;;6.87;6.37;;;;;;;;;;4930441;29;20254;-79
2022/09/15 00:28:45;;;;;;;6.80;6.30;;;;;;;;;;4929753;29;20252;-78
2022/09/15 00:31:13;;;;;;;7.10;6.60;;;;;;;;;;4930248;29;20192;-78
2022/09/15 00:33:41;;;;;;;7.00;6.50;;;;;;;;;;4912274;29;20242;-80
2022/09/15 00:36:09;;;;;;;6.70;6.30;;;;;;;;;;4912096;29;20335;-79
2022/09/15 00:38:40;;;;;;;7.07;6.57;;;;;;;;;;4910493;29;20741;-79
2022/09/15 00:41:08;;;;;;;7.03;6.53;;;;;;;;;;4891810;29;20209;-79
2022/09/15 00:43:43;;;;;;;6.73;6.20;;;;;;;;;;4910744;29;20612;-79
2022/09/15 00:46:10;;;;;;;6.80;6.30;;;;;;;;;;4910120;29;20279;-79
2022/09/15 00:48:39;;;;;;;6.83;6.33;;;;;;;;;;4893427;29;20629;-80
2022/09/15 00:51:07;;;;;;;7.47;6.97;;;;;;;;;;4910169;29;20615;-79
2022/09/15 00:53:35;;;;;;;6.90;6.40;;;;;;;;;;4910618;29;20192;-80
2022/09/15 00:56:04;;;;;;;7.03;6.47;;;;;;;;;;4893232;29;20272;-79
2022/09/15 00:58:35;;;;;;;6.73;6.23;;;;;;;;;;4893300;29;20237;-79
2022/09/15 01:01:03;;;;;;;6.17;5.77;;;;;;;;;;4910370;29;20201;-79
2022/09/15 01:03:32;;;;;;;7.10;6.60;;;;;;;;;;4910348;29;20216;-80
2022/09/15 01:06:04;;;;;;;6.30;5.80;;;;;;;;;;4910606;29;20785;-79
2022/09/15 01:08:33;;;;;;;6.10;5.70;;;;;;;;;;4893472;29;20204;-78
2022/09/15 01:11:01;;;;;;;6.10;5.70;;;;;;;;;;4909661;29;20200;-78
2022/09/15 01:13:29;;;;;;;6.13;5.73;;;;;;;;;;4890819;29;20201;-79
2022/09/15 01:16:00;;;;;;;6.40;6.00;;;;;;;;;;4890817;29;20196;-79
2022/09/15 01:18:30;;;;;;;6.57;6.17;;;;;;;;;;4890788;29;20243;-78
2022/09/15 01:21:31;;;;;;;7.40;6.80;;;;;;;;;;4907954;29;20195;-78
2022/09/15 01:24:13;;;;;;;6.13;5.50;;;;;;;;;;4851642;29;20247;-79
2022/09/15 01:26:55;;;;;;;2.77;2.57;;;;;;;;;;4850254;29;20234;-78
2022/09/15 01:29:35;;;;;;;2.97;2.77;;;;;;;;;;4893225;29;20216;-78
2022/09/15 01:34:53;;;;;;;3.07;2.87;;;;;;;;;;4891456;29;20561;-79
2022/09/15 01:37:22;;;;;;;3.20;2.90;;;;;;;;;;4891287;29;20224;-78
2022/09/15 01:39:51;;;;;;;2.80;2.60;;;;;;;;;;4907804;29;20201;-79
2022/09/15 01:42:19;;;;;;;3.53;2.80;;;;;;;;;;4892266;29;20200;-79
2022/09/15 01:44:55;;;;;;;2.80;2.60;;;;;;;;;;4892254;29;20284;-79
2022/09/15 01:47:23;;;;;;;2.90;2.70;;;;;;;;;;4909586;29;20216;-78
2022/09/15 01:49:51;;;;;;;3.10;2.90;;;;;;;;;;4891816;29;20197;-80
2022/09/15 01:52:20;;;;;;;2.90;2.70;;;;;;;;;;4892379;29;20204;-79
2022/09/15 01:54:49;;;;;;;4.73;4.43;;;;;;;;;;4909327;29;20228;-78
2022/09/15 01:57:20;;;;;;;7.77;7.27;;;;;;;;;;4891356;29;20221;-78
2022/09/15 01:59:47;;;;;;;8.33;7.83;;;;;;;;;;4892140;29;20787;-79
2022/09/15 02:02:19;;;;;;;8.60;8.00;;;;;;;;;;4909092;29;20201;-79
2022/09/15 02:04:49;;;;;;;7.00;6.40;;;;;;;;;;4909254;29;20732;-79
2022/09/15 02:07:20;;;;;;;6.80;6.30;;;;;;;;;;4909013;29;20638;-79
2022/09/15 02:09:51;;;;;;;7.43;6.97;;;;;;;;;;4891228;29;20201;-79
2022/09/15 02:12:21;;;;;;;6.97;6.57;;;;;;;;;;4892281;29;20550;-79
2022/09/15 02:14:54;;;;;;;3.33;2.40;;;;;;;;;;4908880;29;20669;-79
2022/09/15 02:17:24;;;;;;;2.80;2.60;;;;;;;;;;4892023;29;20228;-80
2022/09/15 02:19:54;;;;;;;2.80;2.60;;;;;;;;;;4891715;29;20224;-79
2022/09/15 02:22:23;;;;;;;2.97;2.60;;;;;;;;;;4909068;29;20197;-79
2022/09/15 02:24:54;;;;;;;2.80;2.60;;;;;;;;;;4891468;29;20220;-80
2022/09/15 02:27:23;;;;;;;2.30;2.20;;;;;;;;;;4908992;29;20235;-79
2022/09/15 02:29:52;;;;;;;3.07;2.70;;;;;;;;;;4909184;29;20196;-78
2022/09/15 02:32:22;;;;;;;2.53;2.40;;;;;;;;;;4909075;29;20681;-79
2022/09/15 02:34:52;;;;;;;6.80;6.40;;;;;;;;;;4891411;29;20268;-79
2022/09/15 02:37:21;;;;;;;2.70;2.50;;;;;;;;;;4908772;29;20243;-79
2022/09/15 02:39:50;;;;;;;3.20;2.67;;;;;;;;;;4908484;29;20199;-79
2022/09/15 02:42:23;;;;;;;3.47;3.10;;;;;;;;;;4888526;29;20232;-80
2022/09/15 02:44:50;;;;;;;2.53;2.27;;;;;;;;;;4906749;29;20310;-78
2022/09/15 02:47:18;;;;;;;6.03;5.63;;;;;;;;;;4907958;29;20245;-79
2022/09/15 02:49:45;;;;;;;2.73;2.53;;;;;;;;;;4890264;29;20203;-78
2022/09/15 02:52:13;;;;;;;2.70;2.50;;;;;;;;;;4903001;29;20283;-78
2022/09/15 02:54:41;;;;;;;8.20;7.70;;;;;;;;;;4880535;29;20257;-78
2022/09/15 02:57:08;;;;;;;7.10;6.70;;;;;;;;;;4896834;29;20632;-78
2022/09/15 03:02:19;;;;;;;9.20;8.70;;;;;;;;;;4878092;29;20268;-80
2022/09/15 03:04:46;;;;;;;7.70;7.20;;;;;;;;;;4880126;29;20771;-79
2022/09/15 03:07:14;;;;;;;6.87;6.47;;;;;;;;;;4882743;29;20231;-80
2022/09/15 03:09:42;;;;;;;7.50;7.10;;;;;;;;;;4880279;29;20201;-78
2022/09/15 03:12:09;;;;;;;7.90;7.30;;;;;;;;;;4897083;29;20620;-78
2022/09/15 03:14:37;;;;;;;6.80;6.40;;;;;;;;;;4880485;29;20237;-78
2022/09/15 03:17:04;;;;;;;7.00;6.60;;;;;;;;;;4880008;29;20303;-80
2022/09/15 03:19:32;;;;;;;3.93;3.63;;;;;;;;;;4863217;29;20725;-81
2022/09/15 03:21:59;;;;;;;2.50;2.30;;;;;;;;;;4882255;29;20258;-79
2022/09/15 03:24:27;;;;;;;2.80;2.60;;;;;;;;;;4881735;29;20316;-80
2022/09/15 03:26:54;;;;;;;6.60;6.20;;;;;;;;;;4880937;29;20300;-79
2022/09/15 03:29:21;;;;;;;8.67;8.07;;;;;;;;;;4881295;29;20204;-78
2022/09/15 03:31:49;;;;;;;9.90;9.40;;;;;;;;;;4865786;29;20257;-77
2022/09/15 03:34:16;;;;;;;9.70;9.20;;;;;;;;;;4864972;29;20201;-78
2022/09/15 03:36:43;;;;;;;9.77;9.23;;;;;;;;;;4880811;29;20777;-77
2022/09/15 03:39:12;;;;;;;5.57;2.73;;;;;;;;;;4879736;29;20554;-77
2022/09/15 03:41:40;;;;;;;5.40;5.00;;;;;;;;;;4862781;29;20200;-77
2022/09/15 03:44:07;;;;;;;8.63;8.13;;;;;;;;;;4862831;29;20205;-77
2022/09/15 03:46:34;;;;;;;9.67;9.07;;;;;;;;;;4879665;29;20225;-77
2022/09/15 03:49:02;;;;;;;10.23;9.63;;;;;;;;;;4880335;29;20227;-77
2022/09/15 03:51:29;;;;;;;9.80;9.20;;;;;;;;;;4863080;29;20210;-77
2022/09/15 03:53:56;;;;;;;10.07;9.57;;;;;;;;;;4879929;29;20225;-77
2022/09/15 03:56:24;;;;;;;9.60;9.00;;;;;;;;;;4879928;29;20213;-77
2022/09/15 03:58:53;;;;;;;10.17;9.57;;;;;;;;;;4862925;29;20296;-77
2022/09/15 04:01:21;;;;;;;11.00;10.40;;;;;;;;;;4879424;29;20568;-77
2022/09/15 04:03:49;;;;;;;10.10;9.50;;;;;;;;;;4881556;29;20201;-77
2022/09/15 04:06:16;;;;;;;11.97;11.27;;;;;;;;;;4883060;29;20232;-77
2022/09/15 04:08:43;;;;;;;7.03;6.63;;;;;;;;;;4866429;29;20631;-77
2022/09/15 04:11:11;;;;;;;10.40;9.80;;;;;;;;;;4883076;29;20194;-77
2022/09/15 04:13:40;;;;;;;10.50;9.90;;;;;;;;;;4883575;29;20309;-77
2022/09/15 04:16:09;;;;;;;9.90;9.33;;;;;;;;;;4866261;29;20221;-77
2022/09/15 04:18:37;;;;;;;8.93;8.43;;;;;;;;;;4883096;29;20205;-77
2022/09/15 04:21:05;;;;;;;9.93;9.33;;;;;;;;;;4866328;29;20297;-77
2022/09/15 04:23:33;;;;;;;10.37;9.77;;;;;;;;;;4866048;29;20231;-77
2022/09/15 04:26:00;;;;;;;4.70;4.50;;;;;;;;;;4865995;29;20233;-77
2022/09/15 04:28:28;;;;;;;2.90;2.70;;;;;;;;;;4882668;29;20198;-77
2022/09/15 04:31:03;;;;;;;4.47;2.77;;;;;;;;;;4865993;29;20465;-77
2022/09/15 04:33:32;;;;;;;10.20;9.60;;;;;;;;;;4882992;29;20205;-77
2022/09/15 04:35:59;;;;;;;10.40;9.80;;;;;;;;;;4866066;29;20217;-77
2022/09/15 04:38:26;;;;;;;10.70;9.90;;;;;;;;;;4882559;29;20204;-77
2022/09/15 04:40:54;;;;;;;10.50;9.90;;;;;;;;;;4866071;29;20205;-77
2022/09/15 04:43:21;;;;;;;11.00;10.30;;;;;;;;;;4882580;29;20197;-77
2022/09/15 04:45:48;;;;;;;11.37;10.77;;;;;;;;;;4882117;29;20224;-77
2022/09/15 04:48:15;;;;;;;11.37;10.77;;;;;;;;;;4865634;29;20205;-77
2022/09/15 04:50:44;;;;;;;10.00;9.40;;;;;;;;;;4882198;29;20573;-77
2022/09/15 04:53:11;;;;;;;11.47;10.77;;;;;;;;;;4882482;29;20738;-77
2022/09/15 04:55:38;;;;;;;11.20;10.60;;;;;;;;;;4865455;29;20269;-77
2022/09/15 04:58:05;;;;;;;12.03;11.43;;;;;;;;;;4882507;29;20197;-77
2022/09/15 05:00:35;;;;;;;11.40;10.73;;;;;;;;;;4882151;29;20279;-77
2022/09/15 05:03:02;;;;;;;10.80;10.20;;;;;;;;;;4881754;29;20200;-77
2022/09/15 05:05:29;;;;;;;11.80;11.10;;;;;;;;;;4881852;29;20209;-77
2022/09/15 05:07:59;;;;;;;11.83;11.23;;;;;;;;;;4882231;29;20303;-77
2022/09/15 05:10:26;;;;;;;11.27;10.67;;;;;;;;;;4882320;29;20771;-77
2022/09/15 05:12:54;;;;;;;11.50;10.90;;;;;;;;;;4865431;29;20201;-77
2022/09/15 05:15:21;;;;;;;11.47;10.87;;;;;;;;;;4881362;29;20616;-77
2022/09/15 05:17:48;;;;;;;11.30;10.70;;;;;;;;;;4865096;29;20217;-77
2022/09/15 05:20:16;;;;;;;12.33;11.73;;;;;;;;;;4881583;29;20577;-77
2022/09/15 05:22:43;;;;;;;13.20;12.40;;;;;;;;;;4882160;29;20569;-77
2022/09/15 05:25:12;;;;;;;10.50;9.80;;;;;;;;;;4881678;29;20217;-77
2022/09/15 05:27:39;;;;;;;9.37;8.80;;;;;;;;;;4902887;23;20242;-79
2022/09/15 05:30:07;;;;;;;10.80;10.20;;;;;;;;;;4901161;29;20211;-79
2022/09/15 05:32:34;;;;;;;12.60;11.80;;;;;;;;;;4901529;29;20213;-78
2022/09/15 05:35:01;;;;;;;12.30;11.60;;;;;;;;;;4901400;29;20287;-79
2022/09/15 05:37:28;;;;;;;12.10;11.40;;;;;;;;;;4901156;29;20224;-79
2022/09/15 05:39:58;;;;;;;10.80;10.17;;;;;;;;;;4900402;29;20215;-78
2022/09/15 05:42:26;;;;;;;11.33;10.63;;;;;;;;;;4900848;29;20239;-79
2022/09/15 05:44:53;;;;;;;11.57;10.97;;;;;;;;;;4917819;29;20192;-79
2022/09/15 05:47:20;;;;;;;11.50;10.80;;;;;;;;;;4900751;29;20247;-78
2022/09/15 05:49:48;;;;;;;13.03;12.23;;;;;;;;;;4917925;29;20230;-80
2022/09/15 05:52:15;;;;;;;12.40;11.70;;;;;;;;;;4900987;29;20208;-80
2022/09/15 05:54:42;;;;;;;11.60;10.90;;;;;;;;;;4900990;29;20240;-79
2022/09/15 05:57:09;;;;;;;11.80;11.10;;;;;;;;;;4900624;29;20302;-78
2022/09/15 05:59:38;;;;;;;12.90;12.20;;;;;;;;;;4917056;29;20550;-79
2022/09/15 06:02:05;;;;;;;11.80;11.10;;;;;;;;;;4900709;29;20200;-78
2022/09/15 06:04:33;;;;;;;13.13;12.33;;;;;;;;;;4917850;29;20219;-81
2022/09/15 06:07:00;;;;;;;12.40;11.60;;;;;;;;;;4916926;29;20227;-80
2022/09/15 06:09:27;;;;;;;13.00;12.20;;;;;;;;;;4899849;29;20251;-80
2022/09/15 06:11:54;;;;;;;12.30;11.50;;;;;;;;;;4899959;29;20333;-80
2022/09/15 06:14:21;;;;;;;12.47;11.53;;;;;;;;;;4900407;29;20212;-81
2022/09/15 06:16:50;;;;;;;12.20;11.50;;;;;;;;;;4919453;29;20211;-80
2022/09/15 06:19:17;;;;;;;13.33;12.63;;;;;;;;;;4900217;29;20649;-81
2022/09/15 06:21:44;;;;;;;4.43;3.83;;;;;;;;;;4900818;29;20231;-81
2022/09/15 06:24:12;;;;;;;3.30;3.10;;;;;;;;;;4917043;29;20207;-81
2022/09/15 06:26:39;;;;;;;3.53;3.30;;;;;;;;;;4916935;29;20705;-80
2022/09/15 06:29:07;;;;;;;3.50;3.30;;;;;;;;;;4916772;29;20198;-80
2022/09/15 06:31:35;;;;;;;3.73;3.37;;;;;;;;;;4917603;29;20274;-81
2022/09/15 06:34:04;;;;;;;3.70;3.40;;;;;;;;;;4901313;29;20718;-81
2022/09/15 06:36:31;;;;;;;3.50;3.30;;;;;;;;;;4918730;29;20220;-81
2022/09/15 06:38:59;;;;;;;3.53;3.23;;;;;;;;;;4918018;29;20192;-81
2022/09/15 06:41:27;;;;;;;3.60;3.37;;;;;;;;;;4900271;29;20211;-81
2022/09/15 06:43:55;;;;;;;3.33;3.13;;;;;;;;;;4900132;29;20203;-81
2022/09/15 06:46:24;;;;;;;3.63;3.33;;;;;;;;;;4899897;29;20236;-81
2022/09/15 06:48:52;;;;;;;3.90;3.60;;;;;;;;;;4901679;29;20212;-80
2022/09/15 06:51:22;;;;;;;3.70;3.40;;;;;;;;;;4916415;29;20590;-81
2022/09/15 06:53:49;;;;;;;3.50;3.20;;;;;;;;;;4899758;29;20253;-79
2022/09/15 06:56:17;;;;;;;4.20;3.37;;;;;;;;;;4899880;29;20668;-79
2022/09/15 06:58:45;;;;;;;3.33;3.03;;;;;;;;;;4895441;29;20260;-78
2022/09/15 07:01:13;;;;;;;3.70;3.33;;;;;;;;;;4932887;29;20207;-78
2022/09/15 07:03:41;;;;;;;3.47;3.23;;;;;;;;;;4935411;29;20248;-78
2022/09/15 07:06:10;;;;;;;3.70;3.40;;;;;;;;;;4934949;29;20302;-79
2022/09/15 07:08:39;;;;;;;3.57;3.27;;;;;;;;;;4935521;29;20206;-78
2022/09/15 07:11:07;;;;;;;3.83;3.20;;;;;;;;;;4918269;29;20199;-78
2022/09/15 07:13:34;;;;;;;3.40;3.20;;;;;;;;;;4917787;29;20204;-79
2022/09/15 07:16:02;;;;;;;4.50;4.20;;;;;;;;;;4934940;29;20719;-78
2022/09/15 07:18:31;;;;;;;4.10;3.70;;;;;;;;;;4918025;29;20203;-79
2022/09/15 07:20:59;;;;;;;4.10;3.83;;;;;;;;;;4934894;29;20202;-79
2022/09/15 07:23:26;;;;;;;4.20;3.90;;;;;;;;;;4935173;29;20195;-79
2022/09/15 07:26:04;;;;;;;4.30;4.00;;;;;;;;;;4935304;29;20226;-79
2022/09/15 07:28:31;;;;;;;5.20;4.83;;;;;;;;;;4935025;29;20266;-78
2022/09/15 07:30:59;;;;;;;4.80;4.50;;;;;;;;;;4935381;29;20648;-79
2022/09/15 07:33:26;;;;;;;4.43;4.13;;;;;;;;;;4936513;29;20201;-79
2022/09/15 07:35:53;;;;;;;4.17;3.73;;;;;;;;;;4936744;29;20226;-79
2022/09/15 07:38:20;;;;;;;3.30;3.10;;;;;;;;;;4920394;29;20287;-79
2022/09/15 07:40:48;;;;;;;4.77;4.37;;;;;;;;;;4922742;29;20634;-79
2022/09/15 07:43:17;;;;;;;5.37;5.07;;;;;;;;;;4939770;29;20202;-80
2022/09/15 07:45:44;;;;;;;8.13;7.43;;;;;;;;;;4939505;29;20187;-79
2022/09/15 07:48:11;;;;;;;7.30;6.80;;;;;;;;;;4922193;29;20233;-79
2022/09/15 07:50:38;;;;;;;7.30;6.90;;;;;;;;;;4921727;29;20235;-80
2022/09/15 07:53:06;;;;;;;8.03;7.53;;;;;;;;;;4923129;29;20619;-79
2022/09/15 07:55:33;;;;;;;8.70;8.10;;;;;;;;;;4939802;29;20198;-79
2022/09/15 07:58:01;;;;;;;10.83;10.20;;;;;;;;;;4906987;29;20646;-79
2022/09/15 08:00:29;;;;;;;9.30;8.60;;;;;;;;;;4902512;29;20631;-80
2022/09/15 08:02:56;;;;;;;9.60;8.90;;;;;;;;;;4902742;29;20763;-80
2022/09/15 08:05:26;;;;;;;4.10;3.70;;;;;;;;;;4918985;29;20201;-79
2022/09/15 08:07:54;;;;;;;3.73;3.43;;;;;;;;;;4919511;29;20218;-79
2022/09/15 08:10:21;;;;;;;6.97;6.47;;;;;;;;;;4902103;29;20205;-79
2022/09/15 08:12:49;;;;;;;8.00;7.40;;;;;;;;;;4919334;29;20617;-79
2022/09/15 08:15:16;;;;;;;9.13;8.43;;;;;;;;;;4902114;29;20197;-79
2022/09/15 08:17:45;;;;;;;5.10;4.70;;;;;;;;;;4919472;29;20273;-80
2022/09/15 08:20:13;;;;;;;6.13;5.80;;;;;;;;;;4916478;29;20591;-79
2022/09/15 08:22:41;;;;;;;6.40;5.90;;;;;;;;;;4918830;29;20226;-78
2022/09/15 08:25:08;;;;;;;4.47;4.17;;;;;;;;;;4918700;29;20200;-78
2022/09/15 08:27:35;;;;;;;3.80;3.60;;;;;;;;;;4903139;29;20580;-78
2022/09/15 08:30:02;;;;;;;3.33;3.13;;;;;;;;;;4901357;29;20264;-78
2022/09/15 08:32:30;;;;;;;3.30;3.00;;;;;;;;;;4901904;29;20206;-77
2022/09/15 08:34:58;;;;;;;4.40;3.67;;;;;;;;;;4918844;29;20229;-79
2022/09/15 08:37:26;;;;;;;5.20;4.90;;;;;;;;;;4918872;29;20215;-78
2022/09/15 08:39:53;;;;;;;6.57;6.17;;;;;;;;;;4918828;29;20210;-78
2022/09/15 08:42:22;;;;;;;9.40;8.80;;;;;;;;;;4918925;29;20276;-79
2022/09/15 08:44:53;;;;;;;3.07;2.87;;;;;;;;;;4918913;29;20576;-79
2022/09/15 08:47:23;;;;;;;3.93;3.63;;;;;;;;;;4919102;29;20286;-79
2022/09/15 08:49:58;;;;;;;7.60;7.10;;;;;;;;;;4900780;29;20642;-78
2022/09/15 08:52:31;;;;;;;8.03;7.43;;;;;;;;;;4901749;29;20206;-79
2022/09/15 08:54:59;;;;;;;7.97;7.33;;;;;;;;;;4902198;29;20294;-78
2022/09/15 08:57:26;;;;;;;2.80;2.60;;;;;;;;;;4901995;29;20689;-78
2022/09/15 08:59:54;;;;;;;2.80;2.60;;;;;;;;;;4901590;29;20206;-78
2022/09/15 09:02:31;;;;;;;6.93;6.50;;;;;;;;;;4918868;29;20225;-78
2022/09/15 09:05:00;;;;;;;7.50;7.00;;;;;;;;;;4918566;29;20262;-78
2022/09/15 09:07:36;;;;;;;2.70;2.50;;;;;;;;;;4918589;29;20714;-79
2022/09/15 09:10:08;;;;;;;6.60;6.20;;;;;;;;;;4901496;29;20702;-79
2022/09/15 09:12:42;;;;;;;8.77;8.27;;;;;;;;;;4900955;29;20620;-79
2022/09/15 09:15:16;;;;;;;3.00;2.70;;;;;;;;;;4918658;29;20199;-79
2022/09/15 09:17:57;;;;;;;10.03;9.33;;;;;;;;;;4901402;29;20392;-79
2022/09/15 09:20:32;;;;;;;3.77;3.47;;;;;;;;;;4917966;29;20199;-78
2022/09/15 09:23:02;;;;;;;2.60;2.40;;;;;;;;;;4918193;29;20195;-79
2022/09/15 09:25:30;;;;;;;7.47;7.00;;;;;;;;;;4901118;29;20208;-78
2022/09/15 09:27:57;;;;;;;8.07;7.67;;;;;;;;;;4900810;29;20224;-79
2022/09/15 09:30:25;;;;;;;9.37;8.83;;;;;;;;;;4900770;29;20573;-79
2022/09/15 09:32:56;;;;;;;8.20;7.80;;;;;;;;;;4901083;29;20200;-78
2022/09/15 09:35:25;;;;;;;2.50;2.40;;;;;;;;;;4901030;29;20207;-79
2022/09/15 09:37:53;;;;;;;7.20;6.80;;;;;;;;;;4900991;29;20251;-79
2022/09/15 09:40:22;;;;;;;3.33;2.40;;;;;;;;;;4917756;29;20228;-79
2022/09/15 09:42:49;;;;;;;2.80;2.60;;;;;;;;;;4900841;29;20256;-79
2022/09/15 09:45:18;;;;;;;2.40;2.30;;;20.60;99.90;;;;;;4917915;29;20203;-79
2022/09/15 09:47:46;;;;;;;7.87;7.47;;;21.40;99.90;;;;;;4917903;29;20251;-79
2022/09/15 09:50:41;;;;;;;5.80;5.43;;;21.40;99.90;;;;;;4901123;29;20204;-79
2022/09/15 09:53:26;;;;;;;6.07;5.50;;;21.30;99.90;;;;;;4869111;29;20295;-78
2022/09/15 09:55:55;;;;;;;2.80;2.60;;;21.40;99.90;;;;;;4917995;29;20704;-78
2022/09/15 09:58:24;;;;;;;9.13;8.43;;;21.50;99.90;;;;;;4899937;29;20275;-79
2022/09/15 10:00:52;;;;;;;9.00;8.50;;;21.60;99.90;;;;;;4900276;29;20618;-78
2022/09/15 10:03:21;;;;;;;2.60;2.40;;;21.70;99.90;;;;;;4917053;29;20613;-78
2022/09/15 10:06:01;;;;;;;7.73;7.33;;;21.80;99.90;;;;;;4917552;29;20528;-79
2022/09/15 10:08:28;;;;;;;8.40;7.90;;;21.90;99.90;;;;;;4918270;29;20220;-80
2022/09/15 10:11:05;;;;;;;9.53;8.83;;;22.10;99.90;;;;;;4901092;29;20214;-80
2022/09/15 10:13:34;;;;;;;9.27;8.77;;;22.40;99.90;;;;;;4900304;29;20239;-80
2022/09/15 10:16:05;;;;;;;9.20;8.70;;;22.60;99.90;;;;;;4900010;29;20204;-80
2022/09/15 10:18:34;;;;;;;6.80;6.40;;;22.80;99.90;;;;;;4900473;29;20195;-80
2022/09/15 10:21:03;;;;;;;8.20;7.70;;;22.70;99.90;;;;;;4900469;29;20228;-80
2022/09/15 10:23:31;;;;;;;8.57;8.07;;;22.60;99.90;;;;;;4900792;29;20255;-80
2022/09/15 10:26:20;;;;;;;7.73;7.33;;;22.40;99.90;;;;;;4900018;29;20584;-80
2022/09/15 10:29:11;;;;;;;9.20;8.70;;;22.20;99.90;;;;;;4900152;29;20227;-79
2022/09/15 10:31:39;;;;;;;5.33;4.97;;;22.00;99.90;;;;;;4899816;29;20200;-80
2022/09/15 10:34:29;;;;;;;8.63;8.03;;;21.80;99.90;;;;;;4911551;29;20258;-78
2022/09/15 10:37:08;;;;;;;8.27;7.80;;;21.70;99.90;;;;;;4936186;29;20211;-79
2022/09/15 10:39:47;;;;;;;8.77;8.27;;;21.50;99.90;;;;;;4936238;29;20207;-79
2022/09/15 10:42:23;;;;;;;7.20;6.80;;;21.40;99.90;;;;;;4918757;29;20207;-80
2022/09/15 10:45:00;;;;;;;7.80;7.40;;;21.50;99.90;;;;;;4918642;29;20210;-78
2022/09/15 10:47:38;;;;;;;8.33;7.83;;;21.40;99.90;;;;;;4936372;29;20218;-79
2022/09/15 10:50:13;;;;;;;8.13;7.60;;;21.30;99.90;;;;;;4936314;29;20743;-79
2022/09/15 10:52:58;;;;;;;7.50;7.00;;;21.40;99.90;;;;;;4923962;29;20207;-79
2022/09/15 10:55:40;;;;;;;6.30;5.90;;;21.70;99.90;;;;;;4918376;29;20648;-80
2022/09/15 10:58:22;;;;;;;7.33;6.93;;;22.00;99.90;;;;;;4924109;29;20208;-81
2022/09/15 11:01:00;;;;;;;6.30;5.93;;;22.30;99.90;;;;;;4921671;29;20715;-80
2022/09/15 11:03:52;;;;;;;8.80;8.30;;;22.30;99.90;;;;;;4921263;29;20256;-80
2022/09/15 11:06:28;;;;;;;6.97;6.57;;;22.40;99.90;;;;;;4903361;29;20263;-80
2022/09/15 11:09:12;;;;;;;8.53;7.93;;;22.30;99.90;;;;;;4921347;29;20223;-80
2022/09/15 11:11:48;;;;;;;8.70;8.20;;;22.30;99.90;;;;;;4921217;29;20199;-80
2022/09/15 11:14:34;;;;;;;7.83;7.30;;;22.20;99.90;;;;;;4934394;29;20208;-80
2022/09/15 11:17:12;;;;;;;5.53;5.13;;;22.20;99.90;;;;;;4903911;29;20224;-80
2022/09/15 11:20:04;;;;;;;5.07;4.20;;;22.30;99.90;;;;;;4934649;29;20210;-80
2022/09/15 11:22:34;;;;;;;3.77;3.53;;;22.40;99.90;;;;;;4919792;29;20199;-80
2022/09/15 11:25:05;;;;;;;3.00;2.80;;;22.50;99.90;;;;;;4902887;29;20632;-80
2022/09/15 11:27:39;;;;;;;9.23;8.63;;;22.30;99.90;;;;;;4926734;23;20251;-78
2022/09/15 11:30:16;;;;;;;9.40;8.70;;;22.20;99.90;;;;;;4941987;29;20194;-77
2022/09/15 11:32:48;;;;;;;9.63;9.00;;;22.00;99.90;;;;;;4942151;29;20191;-78
2022/09/15 11:35:30;;;;;;;9.93;9.33;;;21.80;99.90;;;;;;4925313;29;20203;-77
2022/09/15 11:38:01;;;;;;;9.83;9.17;;;21.70;99.90;;;;;;4916858;29;20215;-78
2022/09/15 11:40:32;;;;;;;9.43;8.63;;;21.40;99.90;;;;;;4905729;29;20204;-78
2022/09/15 11:43:05;;;;;;;9.83;9.23;;;21.20;99.90;;;;;;4904288;29;20267;-78
2022/09/15 11:45:40;;;;;;;3.10;2.87;;;21.20;99.90;;;;;;4920343;29;20247;-77
2022/09/15 11:48:14;;;;;;;5.13;4.80;;;21.20;99.90;;;;;;4904349;29;20268;-77
2022/09/15 11:50:45;;;;;;;8.63;8.07;;;20.80;99.90;;;;;;4921989;29;20232;-77
2022/09/15 11:53:18;;;;;;;3.93;3.73;;;20.00;99.90;;;;;;4921351;29;20234;-77
2022/09/15 11:55:52;;;;;;;9.60;9.10;;;19.40;99.90;;;;;;4906371;29;20673;-77
2022/09/15 11:58:26;;;;;;;4.30;4.00;;;19.10;99.90;;;;;;4906154;29;20641;-77
2022/09/15 12:00:56;;;;;;;9.83;9.33;;;18.80;99.90;;;;;;4924498;29;20199;-78
2022/09/15 12:03:28;;;;;;;9.17;8.67;;;18.70;99.90;;;;;;4924057;29;20203;-77
2022/09/15 12:05:58;;;;;;;9.20;8.70;;;18.60;99.90;;;;;;4906962;29;20238;-77
2022/09/15 12:08:31;;;;;;;2.60;2.50;;;18.50;99.90;;;;;;4923083;29;20225;-78
2022/09/15 12:11:02;;;;;;;9.53;8.93;;;18.40;99.90;;;;;;4923072;29;20743;-77
2022/09/15 12:13:30;;;;;;;3.90;3.70;;;18.30;99.90;;;;;;4907891;29;20206;-78
2022/09/15 12:16:00;;;;;;;9.37;8.87;;;18.20;99.90;;;;;;4907730;29;20212;-78
2022/09/15 12:18:32;;;;;;;9.77;9.17;;;18.10;99.90;;;;;;4907113;29;20248;-78
2022/09/15 12:21:05;;;;;;;9.20;8.60;;;18.00;99.90;;;;;;4922860;29;20205;-78
2022/09/15 12:23:37;;;;;;;8.90;8.40;;;17.90;99.90;;;;;;4923787;29;20194;-78
2022/09/15 12:26:13;;;;;;;8.73;8.30;;;17.80;99.90;;;;;;4908680;29;20260;-77
2022/09/15 12:29:01;;;;;;;9.10;8.60;;;17.80;99.90;;;;;;4910317;29;20224;-78
2022/09/15 12:31:39;;;;;;;9.13;8.63;;;17.60;99.90;;;;;;4911525;29;20226;-78
2022/09/15 12:34:33;;;;;;;9.00;8.50;;;17.30;99.90;;;;;;4926986;29;20204;-79
2022/09/15 12:37:11;;;;;;;9.27;8.77;;;17.20;99.90;;;;;;4909777;29;20200;-78
2022/09/15 12:39:40;;;;;;;10.00;9.40;;;16.90;99.90;;;;;;4910100;29;20196;-77
2022/09/15 12:42:20;;;;;;;10.07;9.53;;;16.70;99.90;;;;;;4910503;29;20207;-78
2022/09/15 12:44:51;;;;;;;10.07;9.47;;;16.60;99.90;;;;;;4926742;29;20198;-76
2022/09/15 12:47:30;;;;;;;9.70;9.20;;;16.60;99.90;;;;;;4926965;29;20216;-77
2022/09/15 12:50:03;;;;;;;10.00;9.40;;;16.60;99.90;;;;;;4909494;29;20299;-79
2022/09/15 12:52:31;;;;;;;10.07;9.37;;;16.70;99.90;;;;;;4909382;29;20298;-78
2022/09/15 12:55:02;;;;;;;9.80;9.30;;;16.90;99.90;;;;;;4907839;29;20263;-78
2022/09/15 12:57:32;;;;;;;9.43;8.93;;;17.00;99.90;;;;;;4908034;29;20235;-78
2022/09/15 13:00:26;;;;;;;9.80;9.20;;;17.10;99.90;;;;;;4924038;29;20636;-78
2022/09/15 13:02:54;;;;;;;9.83;9.23;;;17.10;99.90;;;;;;4900336;29;20204;-77
2022/09/15 13:05:56;;;;;;;9.67;8.97;;;17.20;99.90;;;;;;4908034;29;20200;-77
2022/09/15 13:08:45;;;;;;;9.83;9.23;;;17.10;99.90;;;;;;4893182;29;20720;-77
2022/09/15 13:11:15;;;;;;;9.83;9.23;;;16.90;99.90;;;;;;4924661;29;20196;-77
2022/09/15 13:13:47;;;;;;;10.10;9.40;;;16.80;99.90;;;;;;4923884;29;20220;-77
2022/09/15 13:16:20;;;;;;;9.27;8.77;;;16.70;99.90;;;;;;4907727;29;20204;-77
2022/09/15 13:18:50;;;;;;;10.73;10.03;;;16.70;99.90;;;;;;4912197;29;20750;-77
2022/09/15 13:21:22;;;;;;;9.60;9.00;;;16.70;99.90;;;;;;4905177;29;20202;-76
2022/09/15 13:23:52;;;;;;;10.60;9.70;;;16.70;99.90;;;;;;4905015;29;20221;-77
2022/09/15 13:26:24;;;;;;;9.97;9.37;;;16.90;99.90;;;;;;4889967;29;20622;-75
2022/09/15 13:28:52;;;;;;;10.67;9.87;;;17.00;99.90;;;;;;4888410;29;20288;-76
2022/09/15 13:31:29;;;;;;;10.00;9.17;;;16.90;99.90;;;;;;4906593;29;20204;-76
2022/09/15 13:34:30;;;;;;;9.87;9.27;;;16.90;99.90;;;;;;4889122;29;20689;-76
2022/09/15 13:37:13;;;;;;;10.60;9.80;;;17.10;99.90;;;;;;4906135;29;20696;-76
2022/09/15 13:40:00;;;;;;;3.73;3.37;;;17.20;99.90;;;;;;4906324;29;20192;-76
2022/09/15 13:42:34;;;;;;;4.47;3.07;;;17.40;99.90;;;;;;4905809;29;20215;-76
2022/09/15 13:45:33;;;;;;;9.47;8.63;;;17.50;99.90;;;;;;4888727;29;20209;-76
2022/09/15 13:48:36;;;;;;;9.67;9.07;;;17.70;99.90;;;;;;4898270;29;20763;-77
2022/09/15 13:51:11;;;;;;;3.57;2.90;;;17.90;99.90;;;;;;4886971;29;20237;-78
2022/09/15 13:53:45;;;;;;;9.10;8.50;;;17.80;99.90;;;;;;4909893;29;20208;-77
2022/09/15 13:56:19;;;;;;;10.13;9.40;;;17.70;99.90;;;;;;4932868;29;20224;-75
2022/09/15 13:58:47;;;;;;;9.80;9.20;;;17.40;99.90;;;;;;4913222;29;20343;-75
2022/09/15 14:01:15;;;;;;;11.40;10.53;;;17.30;99.90;;;;;;4917522;29;20269;-76
2022/09/15 14:03:46;;;;;;;3.27;2.73;;;17.30;99.90;;;;;;4907761;29;20233;-76
2022/09/15 14:06:16;;;;;;;4.13;3.30;;;17.30;99.90;;;;;;4907833;29;20192;-76
2022/09/15 14:08:45;;;;;;;10.03;9.20;;;17.10;99.90;;;;;;4907757;29;20241;-75
2022/09/15 14:11:16;;;;;;;10.37;9.63;;;17.10;99.90;;;;;;4906851;29;20196;-76
2022/09/15 14:13:46;;;;;;;11.23;10.53;;;17.00;99.90;;;;;;4898874;29;20207;-76
2022/09/15 14:16:23;;;;;;;6.73;6.23;;;16.90;99.90;;;;;;4930472;29;20193;-78
2022/09/15 14:18:50;;;;;;;8.60;8.00;;;16.80;99.90;;;;;;4941597;29;20657;-78
2022/09/15 14:21:19;;;;;;;7.57;7.07;;;16.80;99.90;;;;;;4931653;29;20211;-77
2022/09/15 14:23:47;;;;;;;11.87;11.17;;;16.70;99.90;;;;;;4932000;29;20210;-77
2022/09/15 14:26:19;;;;;;;9.77;9.17;;;16.70;99.90;;;;;;4918151;29;20215;-78